ADDS METAR Data INFO
IDs: Format: Raw Decoded Include TAF

Data at: 0250 UTC 21 Jan 2018

KIRS 210235Z AUTO 21007KT 5SM BR OVC008 03/02 A3002 RMK AO2 T00260017
KIRS 210215Z AUTO 21008KT 7SM OVC010 03/02 A3002 RMK AO2 T00290015
KIRS 210155Z AUTO 21008KT 10SM OVC012 03/01 A3002 RMK AO2 T00280011
KIRS 210135Z AUTO 21006KT 10SM OVC014 03/01 A3002 RMK AO2 T00270010
KIRS 210115Z AUTO 20005KT 7SM OVC014 03/01 A3001 RMK AO2 T00280011
KIRS 210055Z AUTO 21005KT 7SM OVC014 03/01 A3001 RMK AO2 T00250011
KIRS 210035Z AUTO 23004KT 10SM OVC012 03/01 A3001 RMK AO2 T00260010
KIRS 210015Z AUTO 22005KT 10SM OVC012 02/01 A3001 RMK AO2 T00220005
KIRS 202355Z AUTO 22005KT 10SM SCT014 02/00 A3001 RMK AO2 T00170000 10038 20015
KIRS 202335Z AUTO 21005KT 10SM CLR 02/00 A3001 RMK AO2 T00191001
KIRS 202315Z AUTO 22003KT 10SM CLR 02/00 A3000 RMK AO2 T00200000
KIRS 202255Z AUTO 21005KT 10SM CLR 02/00 A2999 RMK AO2 T00220000
KIRS 202235Z AUTO 21007KT 10SM CLR 03/00 A2998 RMK AO2 T00260000
KIRS 202215Z AUTO 20007KT 10SM CLR 03/00 A2997 RMK AO2 T00300000
KIRS 202155Z AUTO 21008KT 10SM CLR 03/00 A2997 RMK AO2 T00310000
KIRS 202135Z AUTO 21008KT 10SM CLR 04/00 A2996 RMK AO2 T00350000
KIRS 202115Z AUTO 22007KT 10SM CLR 04/00 A2996 RMK AO2 T00370000
KIRS 202055Z AUTO 21007KT 10SM CLR 04/00 A2995 RMK AO2 T00370000
KIRS 202035Z AUTO 21007KT 10SM CLR 04/00 A2995 RMK AO2 T00371001
KIRS 202015Z AUTO 22008KT 10SM CLR 04/00 A2995 RMK AO2 T00371004
KIRS 201955Z AUTO 22007KT 10SM CLR 04/00 A2995 RMK AO2 T00371004
KIRS 201935Z AUTO 21007KT 10SM CLR 04/00 A2994 RMK AO2 T00351005
KIRS 201915Z AUTO 22009KT 10SM CLR 03/M01 A2994 RMK AO2 T00341006
KIRS 201856Z AUTO 22008KT 10SM CLR 03/M01 A2995 RMK AO2 T00321006
KIRS 201835Z AUTO 22009KT 10SM CLR 03/M01 A2994 RMK AO2 T00311008
KIRS 201815Z AUTO 22009KT 10SM CLR 03/M01 A2994 RMK AO2 T00321010
KIRS 201755Z AUTO 23012KT 10SM CLR 03/M01 A2994 RMK AO2 T00281010 10030 21021
KIRS 201735Z AUTO 22011KT 10SM CLR 03/M01 A2994 RMK AO2 T00281012
KIRS 201715Z AUTO 22012KT 10SM CLR 03/M01 A2995 RMK AO2 T00251014
KIRS 201655Z AUTO 22011KT 10SM CLR 03/M01 A2996 RMK AO2 T00251015
KIRS 201635Z AUTO 23010KT 10SM CLR 02/M02 A2996 RMK AO2 T00211016
KIRS 201615Z AUTO 23010KT 10SM CLR 02/M02 A2996 RMK AO2 T00201018
KIRS 201555Z AUTO 23009KT 10SM CLR 02/M02 A2996 RMK AO2 T00151020
KIRS 201535Z AUTO 22008KT 10SM CLR 01/M02 A2995 RMK AO2 T00111021
KIRS 201515Z AUTO 23009KT 10SM CLR 01/M02 A2995 RMK AO2 T00071025
KIRS 201455Z AUTO 22009KT 10SM CLR 00/M03 A2994 RMK AO2 T00021027
KIRS 201435Z AUTO 23007KT 10SM CLR 00/M03 A2993 RMK AO2 T10041031
KIRS 201415Z AUTO 24007KT 10SM CLR M01/M03 A2993 RMK AO2 T10061033
KIRS 201355Z AUTO 23007KT 10SM CLR M01/M03 A2991 RMK AO2 T10111035
KIRS 201335Z AUTO 24007KT 10SM CLR M01/M04 A2991 RMK AO2 T10111036
KIRS 201315Z AUTO 23005KT 10SM CLR M02/M04 A2990 RMK AO2 T10191041
KIRS 201255Z AUTO 22005KT 10SM CLR M02/M04 A2989 RMK AO2 T10191041
KIRS 201235Z AUTO 23005KT 10SM CLR M02/M04 A2989 RMK AO2 T10201043
KIRS 201215Z AUTO 22006KT 10SM CLR M02/M04 A2988 RMK AO2 T10181043
KIRS 201155Z AUTO 23006KT 10SM CLR M01/M04 A2987 RMK AO2 T10151042 10010 21015
KIRS 201135Z AUTO 23006KT 10SM CLR M01/M04 A2987 RMK AO2 T10131041
KIRS 201115Z AUTO 23007KT 10SM CLR M01/M04 A2987 RMK AO2 T10081040
KIRS 201055Z AUTO 23009KT 10SM CLR M01/M04 A2986 RMK AO2 T10081041
KIRS 201035Z AUTO 24008KT 10SM CLR M01/M04 A2985 RMK AO2 T10061040
KIRS 201015Z AUTO 24008KT 10SM CLR 00/M04 A2985 RMK AO2 T10021039
KIRS 200955Z AUTO 24009KT 10SM CLR 00/M04 A2984 RMK AO2 T10011039
KIRS 200935Z AUTO 23009KT 10SM CLR 00/M04 A2983 RMK AO2 T10011040
KIRS 200915Z AUTO 23011KT 10SM CLR 00/M04 A2983 RMK AO2 T00001040
KIRS 200855Z AUTO 24010KT 10SM CLR 00/M04 A2984 RMK AO2 T00011039
KIRS 200835Z AUTO 23012KT 10SM CLR 00/M04 A2983 RMK AO2 T00041038
KIRS 200815Z AUTO 23011KT 10SM CLR 01/M04 A2983 RMK AO2 T00051037
KIRS 200755Z AUTO 24011KT 10SM CLR 01/M04 A2983 RMK AO2 T00061037
KIRS 200735Z AUTO 23011KT 10SM CLR 01/M04 A2982 RMK AO2 T00061038
KIRS 200715Z AUTO 23013G19KT 10SM CLR 01/M04 A2982 RMK AO2 T00091037
KIRS 200655Z AUTO 23013KT 10SM CLR 01/M04 A2981 RMK AO2 T00071037
KIRS 200635Z AUTO 23013G19KT 10SM CLR 01/M04 A2981 RMK AO2 T00081038
KIRS 200615Z AUTO 22015KT 10SM CLR 01/M04 A2981 RMK AO2 T00081037
KIRS 200555Z AUTO 23014G18KT 10SM CLR 01/M04 A2982 RMK AO2 T00081038 10020 20005 400201047
KIRS 200535Z AUTO 23013KT 10SM CLR 01/M04 A2982 RMK AO2 T00101038
KIRS 200515Z AUTO 23014G17KT 10SM CLR 01/M04 A2982 RMK AO2 T00101037
KIRS 200455Z AUTO 23014KT 10SM CLR 01/M04 A2982 RMK AO2 T00111037
KIRS 200435Z AUTO 24013G21KT 10SM CLR 02/M04 A2982 RMK AO2 T00151037
KIRS 200415Z AUTO 24013G17KT 10SM CLR 02/M04 A2981 RMK AO2 T00151036
KIRS 200355Z AUTO 23017G21KT 10SM CLR 02/M04 A2979 RMK AO2 T00161036
KIRS 200336Z AUTO 23014G19KT 10SM CLR 02/M03 A2979 RMK AO2 T00161035
KIRS 200315Z AUTO 22015KT 10SM CLR 02/M03 A2979 RMK AO2 T00191035
KIRS 200255Z AUTO 22018G23KT 10SM CLR 02/M03 A2979 RMK AO2 T00181035
KIRS 200235Z AUTO 22016G22KT 10SM CLR 02/M03 A2979 RMK AO2 T00201035
KIRS 200215Z AUTO 23015G22KT 10SM CLR 02/M03 A2979 RMK AO2 T00201035
KIRS 200155Z AUTO 22016KT 10SM CLR 02/M03 A2979 RMK AO2 T00171035
KIRS 200135Z AUTO 22015G21KT 10SM CLR 02/M04 A2979 RMK AO2 T00161038
KIRS 200115Z AUTO 22013G17KT 10SM CLR 01/M04 A2980 RMK AO2 T00091040
KIRS 200055Z AUTO 22013KT 10SM CLR 01/M04 A2980 RMK AO2 T00071041
KIRS 200035Z AUTO 21014KT 10SM CLR 01/M04 A2979 RMK AO2 T00061042
KIRS 200015Z AUTO 21013KT 10SM CLR 01/M04 A2979 RMK AO2 T00071042
KIRS 192355Z AUTO 21012G16KT 10SM CLR 01/M04 A2980 RMK AO2 T00051043 10017 20000
KIRS 192335Z AUTO 21012KT 10SM CLR 01/M04 A2980 RMK AO2 T00061043
KIRS 192315Z AUTO 20010KT 10SM CLR 01/M04 A2980 RMK AO2 T00061045
KIRS 192255Z AUTO 21011G17KT 10SM CLR 01/M04 A2981 RMK AO2 T00101045
KIRS 192235Z AUTO 21011KT 10SM CLR 01/M04 A2981 RMK AO2 T00121045
KIRS 192215Z AUTO 21012G18KT 10SM CLR 02/M05 A2982 RMK AO2 T00151046
KIRS 192155Z AUTO 21015G19KT 10SM CLR 02/M05 A2982 RMK AO2 T00151046
KIRS 192135Z AUTO 21016KT 10SM CLR 02/M05 A2982 RMK AO2 T00161046
KIRS 192115Z AUTO 21014KT 10SM CLR 02/M05 A2982 RMK AO2 T00161046
KIRS 192055Z AUTO 21014G19KT 10SM CLR 01/M05 A2982 RMK AO2 T00131049
KIRS 192035Z AUTO 21015KT 10SM CLR 01/M05 A2983 RMK AO2 T00121049
KIRS 192015Z AUTO 21015KT 10SM CLR 01/M05 A2983 RMK AO2 T00121052
KIRS 191955Z AUTO 21013KT 10SM CLR 01/M05 A2983 RMK AO2 T00111051
KIRS 191935Z AUTO 21011KT 10SM CLR 01/M05 A2984 RMK AO2 T00101051
KIRS 191915Z AUTO 22015KT 10SM CLR 01/M05 A2985 RMK AO2 T00101054
KIRS 191855Z AUTO 24016G20KT 10SM CLR 01/M06 A2986 RMK AO2 T00071060
KIRS 191835Z AUTO 22017KT 10SM CLR 00/M06 A2987 RMK AO2 T00031058
KIRS 191815Z AUTO 22017KT 10SM CLR 00/M06 A2988 RMK AO2 T00001060
KIRS 191755Z AUTO 23014G21KT 10SM CLR 00/M06 A2989 RMK AO2 T00001063 10000 21045
KIRS 191735Z AUTO 22015G18KT 10SM CLR 00/M07 A2991 RMK AO2 T00001066
KIRS 191715Z AUTO 24014KT 10SM CLR 00/M07 A2992 RMK AO2 T10021066
KIRS 191655Z AUTO 22014G20KT 10SM CLR M01/M07 A2993 RMK AO2 T10061066
KIRS 191635Z AUTO 23013KT 10SM CLR M01/M07 A2995 RMK AO2 T10091069
KIRS 191615Z AUTO 22012G17KT 10SM CLR M01/M07 A2995 RMK AO2 T10111071
KIRS 191555Z AUTO 23014KT 10SM CLR M01/M07 A2995 RMK AO2 T10151073
KIRS 191535Z AUTO 23014G19KT 10SM CLR M02/M08 A2995 RMK AO2 T10181076
KIRS 191515Z AUTO 22016G21KT 10SM CLR M02/M08 A2994 RMK AO2 T10221077
KIRS 191455Z AUTO 23012KT 10SM CLR M02/M08 A2995 RMK AO2 T10251078